createdAt,value
2018-04-18T10:46:17.707Z,3712
2018-04-18T10:47:27.446Z,3768
2018-04-18T10:48:37.203Z,3792
2018-04-18T10:49:46.940Z,3780
2018-04-18T10:50:56.683Z,3784
2018-04-18T10:52:06.430Z,3856
2018-04-18T10:53:16.175Z,3904
2018-04-18T10:54:25.651Z,3924
2018-04-18T10:55:34.856Z,3988
2018-04-18T10:56:44.595Z,4020
2018-04-18T10:57:54.606Z,4004
2018-04-18T10:59:04.080Z,3984
2018-04-18T11:00:13.284Z,3996
2018-04-18T11:01:23.030Z,4020
2018-04-18T11:02:33.051Z,4072
2018-04-18T11:03:42.794Z,4044
2018-04-18T11:04:52.545Z,4064
2018-04-18T11:06:02.351Z,4072
2018-04-18T11:07:12.089Z,4032
2018-04-18T11:08:21.556Z,4024
2018-04-18T11:09:31.565Z,4088
2018-04-18T11:10:41.302Z,4116
2018-04-18T11:11:51.321Z,4152
2018-04-18T11:13:00.537Z,4128
2018-04-18T11:14:10.574Z,4204
2018-04-18T11:15:20.322Z,4276
2018-04-18T11:16:30.076Z,4376
2018-04-18T11:17:39.814Z,4336
2018-04-18T11:18:50.019Z,4336
2018-04-18T11:20:00.026Z,4356
2018-04-18T11:21:09.761Z,4380
2018-04-18T11:22:19.526Z,4432
2018-04-18T11:23:29.280Z,4460
2018-04-18T11:24:39.292Z,4432
2018-04-18T11:25:49.302Z,4468
2018-04-18T11:26:59.116Z,4404
2018-04-18T11:28:08.749Z,4364
2018-04-18T11:29:18.483Z,4392
2018-04-18T11:30:27.962Z,4432
2018-04-18T11:31:37.969Z,4372
2018-04-18T11:32:47.970Z,4388
2018-04-18T11:33:57.453Z,4416
2018-04-18T11:35:07.526Z,4404
2018-04-18T11:36:17.263Z,4396
2018-04-18T11:37:26.999Z,4376
2018-04-18T11:38:35.943Z,4436
2018-04-18T11:39:45.751Z,4500
2018-04-18T11:40:55.840Z,4520
2018-04-18T11:42:05.060Z,4460
2018-04-18T11:43:15.070Z,4468
2018-04-18T11:44:24.821Z,4472
2018-04-18T11:45:34.699Z,4472
2018-04-18T11:46:44.457Z,4540
2018-04-18T11:47:54.453Z,4536
2018-04-18T11:49:03.929Z,4580
2018-04-18T11:50:13.661Z,4580
2018-04-18T11:51:23.442Z,4548
2018-04-18T11:52:33.213Z,4548
2018-04-18T11:53:42.686Z,4544
2018-04-18T11:54:52.432Z,4560
2018-04-18T11:56:02.176Z,4600
2018-04-18T11:57:12.195Z,4648
2018-04-18T11:58:21.931Z,4656
2018-04-18T11:59:31.936Z,4628
2018-04-18T12:00:41.688Z,4596
2018-04-18T12:01:51.421Z,4572
2018-04-18T12:03:01.161Z,4584
2018-04-18T12:04:10.486Z,4584
2018-04-18T12:05:20.553Z,4604
2018-04-18T12:06:30.037Z,4696
2018-04-18T12:07:39.254Z,4692
2018-04-18T12:08:49.267Z,4696
2018-04-18T12:09:58.747Z,4724
2018-04-18T12:11:08.498Z,4732
2018-04-18T12:12:17.976Z,4804
2018-04-18T12:13:27.741Z,4784
2018-04-18T12:14:37.219Z,4756
2018-04-18T12:15:46.429Z,4808
2018-04-18T12:16:56.180Z,4788
2018-04-18T12:18:05.914Z,4788
2018-04-18T12:19:15.649Z,4772
2018-04-18T12:20:25.675Z,4768
2018-04-18T12:21:35.700Z,4792
2018-04-18T12:22:45.703Z,4800
2018-04-18T12:23:55.708Z,4772
2018-04-18T12:25:05.459Z,4728
2018-04-18T12:26:15.210Z,4660
2018-04-18T12:27:25.212Z,4540
2018-04-18T12:28:34.946Z,4768
2018-04-18T12:29:44.160Z,4752
2018-04-18T12:30:53.901Z,4796
2018-04-18T12:32:03.108Z,4768
2018-04-18T12:33:12.591Z,4696
2018-04-18T12:34:22.365Z,4656
2018-04-18T12:35:31.838Z,4712
2018-04-18T12:36:41.593Z,4732
2018-04-18T12:37:51.602Z,4788
2018-04-18T12:39:01.361Z,4920
2018-04-18T12:40:10.836Z,5004
2018-04-18T12:41:20.838Z,5036
2018-04-18T12:42:30.832Z,5084
2018-04-18T12:43:40.834Z,5108
2018-04-18T12:44:49.784Z,5128
2018-04-18T12:45:59.516Z,5136
2018-04-18T12:47:09.272Z,5208
2018-04-18T12:48:19.025Z,5192
2018-04-18T12:49:28.509Z,5116
2018-04-18T12:50:38.244Z,5100
2018-04-18T12:51:48.246Z,5148
2018-04-18T12:52:57.735Z,5224
2018-04-18T12:54:07.204Z,5228
2018-04-18T12:55:16.950Z,5248
2018-04-18T12:56:26.707Z,5304
2018-04-18T12:57:36.610Z,5148
2018-04-18T12:58:46.418Z,5204
2018-04-18T12:59:56.150Z,5236
2018-04-18T13:01:05.634Z,5308
2018-04-18T13:02:15.113Z,5324
2018-04-18T13:03:24.872Z,5340
2018-04-18T13:04:34.348Z,5368
2018-04-18T13:05:44.355Z,5388
2018-04-18T13:06:54.091Z,5424
2018-04-18T13:08:03.565Z,5408
2018-04-18T13:09:13.310Z,5508
2018-04-18T13:10:22.786Z,5484
2018-04-18T13:11:32.795Z,5480
2018-04-18T13:12:42.822Z,5484
2018-04-18T13:13:52.826Z,5496
2018-04-18T13:15:02.575Z,5504
2018-04-18T13:16:12.321Z,5548
2018-04-18T13:17:22.069Z,5532
2018-04-18T13:18:31.819Z,5536
2018-04-18T13:19:41.293Z,5588
2018-04-18T13:20:50.778Z,5540
2018-04-18T13:22:00.522Z,5652
2018-04-18T13:23:10.273Z,5684
2018-04-18T13:24:20.028Z,5496
2018-04-18T13:25:29.438Z,5580
2018-04-18T13:26:38.716Z,5452
2018-04-18T13:27:48.461Z,5420
2018-04-18T13:28:58.458Z,5460
2018-04-18T13:30:07.932Z,5452
2018-04-18T13:31:17.673Z,5560
2018-04-18T13:32:27.428Z,5692
2018-04-18T13:33:37.449Z,5700
2018-04-18T13:34:46.938Z,5736
2018-04-18T13:35:56.956Z,5752
2018-04-18T13:37:06.707Z,5688
2018-04-18T13:38:16.177Z,5692
2018-04-18T13:39:26.193Z,5712
2018-04-18T13:40:35.939Z,5752
2018-04-18T13:41:45.423Z,5640
2018-04-18T13:42:55.431Z,5592
2018-04-18T13:44:05.435Z,5520
2018-04-18T13:45:15.183Z,5680
2018-04-18T13:46:24.927Z,5508
2018-04-18T13:47:34.418Z,5488
2018-04-18T13:48:44.431Z,5600
2018-04-18T13:49:53.645Z,5604
2018-04-18T13:51:03.658Z,5580
2018-04-18T13:52:12.869Z,5636
2018-04-18T13:53:22.892Z,5640
2018-04-18T13:54:32.904Z,5588
2018-04-18T13:55:42.640Z,5644
2018-04-18T13:56:52.123Z,5648
2018-04-18T13:58:01.606Z,5696
2018-04-18T13:59:11.093Z,5672
2018-04-18T14:00:20.300Z,5716
2018-04-18T14:01:30.041Z,5696
2018-04-18T14:02:39.787Z,5820
2018-04-18T14:03:49.260Z,5864
2018-04-18T14:04:59.260Z,5872
2018-04-18T14:06:09.013Z,5848
2018-04-18T14:07:19.023Z,5864
2018-04-18T14:08:28.762Z,5804
2018-04-18T14:09:38.764Z,5828
2018-04-18T14:10:48.787Z,5800
2018-04-18T14:11:58.556Z,5764
2018-04-18T14:13:08.298Z,5724
2018-04-18T14:14:18.054Z,5684
2018-04-18T14:15:28.173Z,5784
2018-04-18T14:16:38.184Z,5804
2018-04-18T14:17:47.928Z,5852
2018-04-18T14:18:57.944Z,5912
2018-04-18T14:20:07.420Z,5868
2018-04-18T14:21:17.476Z,5924
2018-04-18T14:22:27.219Z,5900
2018-04-18T14:23:37.242Z,5952
2018-04-18T14:24:47.004Z,5984
2018-04-18T14:25:56.393Z,5948
2018-04-18T14:27:06.147Z,5868
2018-04-18T14:28:16.215Z,5924
2018-04-18T14:29:26.064Z,5932
2018-04-18T14:30:36.091Z,5892
2018-04-18T14:31:46.105Z,5968
2018-04-18T14:32:56.132Z,5904
2018-04-18T14:34:05.909Z,5912
2018-04-18T14:35:15.416Z,5968
2018-04-18T14:36:24.991Z,5964
2018-04-18T14:37:34.740Z,5996
2018-04-18T14:38:44.496Z,5932
2018-04-18T14:39:54.267Z,5944
2018-04-18T14:41:04.025Z,5968
2018-04-18T14:42:13.773Z,6004
2018-04-18T14:43:23.520Z,6044
2018-04-18T14:44:33.282Z,5988
2018-04-18T14:45:43.044Z,5968
2018-04-18T14:46:52.789Z,5980
2018-04-18T14:48:02.347Z,6068
2018-04-18T14:49:12.090Z,6068
2018-04-18T14:50:21.983Z,6016
2018-04-18T14:51:31.786Z,5992
2018-04-18T14:52:41.535Z,5972
2018-04-18T14:53:51.286Z,5872
2018-04-18T14:55:01.043Z,5952
2018-04-18T14:56:09.746Z,5804
2018-04-18T14:57:19.765Z,5880
2018-04-18T14:58:29.260Z,5912
2018-04-18T14:59:38.753Z,5932
2018-04-18T15:00:47.702Z,5940
2018-04-18T15:01:57.486Z,5928
2018-04-18T15:03:07.035Z,5892
2018-04-18T15:04:16.802Z,5920
2018-04-18T15:05:26.558Z,5984
2018-04-18T15:06:36.297Z,5940
2018-04-18T15:07:46.321Z,5888
2018-04-18T15:08:56.066Z,5896
2018-04-18T15:10:06.108Z,5892
2018-04-18T15:11:15.868Z,5884
2018-04-18T15:12:25.359Z,5964
2018-04-18T15:13:35.390Z,5964
2018-04-18T15:14:45.129Z,6008
2018-04-18T15:15:55.478Z,6044
2018-04-18T15:17:05.250Z,6036
2018-04-18T15:18:14.200Z,6056
2018-04-18T15:19:24.236Z,6032
2018-04-18T15:20:33.983Z,5988
2018-04-18T15:21:44.211Z,5992
2018-04-18T15:22:54.353Z,6000
2018-04-18T15:24:03.847Z,5928
2018-04-18T15:25:13.594Z,5912
2018-04-18T15:26:23.068Z,5952
2018-04-18T15:27:32.824Z,5936
2018-04-18T15:28:42.641Z,5868
2018-04-18T15:29:52.408Z,5544
2018-04-18T15:31:02.427Z,5772
2018-04-18T15:32:12.157Z,5732
2018-04-18T15:33:22.242Z,5744
2018-04-18T15:34:32.261Z,5716
2018-04-18T15:35:42.026Z,5704
2018-04-18T15:36:51.514Z,5704
2018-04-18T15:38:01.547Z,5740
2018-04-18T15:39:11.569Z,5760
2018-04-18T15:40:21.052Z,5720
2018-04-18T15:41:30.538Z,5692
2018-04-18T15:42:40.027Z,5676
2018-04-18T15:43:49.520Z,5652
2018-04-18T15:44:59.532Z,5656
2018-04-18T15:46:09.018Z,5736
2018-04-18T15:47:18.525Z,5728
2018-04-18T15:48:28.562Z,5640
2018-04-18T15:49:38.325Z,5600
2018-04-18T15:50:47.808Z,5612
2018-04-18T15:51:57.301Z,5512
2018-04-18T15:53:07.375Z,5464
2018-04-18T15:54:17.119Z,5544
2018-04-18T15:55:26.855Z,5492
2018-04-18T15:56:36.340Z,5544
2018-04-18T15:57:46.348Z,5540
2018-04-18T15:58:56.121Z,5600
2018-04-18T16:00:06.137Z,5620
2018-04-18T16:01:16.106Z,5628
2018-04-18T16:02:25.817Z,5612
2018-04-18T16:03:35.826Z,5596
2018-04-18T16:04:45.570Z,5608
2018-04-18T16:05:54.787Z,5620
2018-04-18T16:07:04.540Z,5608
2018-04-18T16:08:14.288Z,5612
2018-04-18T16:09:24.035Z,5580
2018-04-18T16:10:33.774Z,5572
2018-04-18T16:11:43.790Z,5580
2018-04-18T16:12:53.535Z,5532
2018-04-18T16:14:02.756Z,5508
2018-04-18T16:15:12.013Z,5472
2018-04-18T16:16:21.767Z,5404
2018-04-18T16:17:31.789Z,5348
2018-04-18T16:18:41.533Z,5284
2018-04-18T16:19:51.545Z,5224
2018-04-18T16:21:01.307Z,5188
2018-04-18T16:22:10.522Z,5144
2018-04-18T16:23:20.273Z,5092
2018-04-18T16:24:29.750Z,5052
2018-04-18T16:25:39.620Z,5004
2018-04-18T16:26:48.817Z,4992
2018-04-18T16:27:58.825Z,4976
2018-04-18T16:29:08.833Z,4960
2018-04-18T16:30:18.836Z,4904
2018-04-18T16:31:28.573Z,4872
2018-04-18T16:32:38.443Z,4836
2018-04-18T16:33:48.185Z,4780
2018-04-18T16:34:57.660Z,4792
2018-04-18T16:36:07.406Z,4768
2018-04-18T16:37:17.144Z,4728
2018-04-18T16:38:27.151Z,4680
2018-04-18T16:39:38.359Z,4660
2018-04-18T16:40:48.138Z,4628
2018-04-18T16:41:58.148Z,4592
2018-04-18T16:43:08.160Z,4560
2018-04-18T16:44:17.642Z,4508
2018-04-18T16:45:27.121Z,4480
2018-04-18T16:46:37.141Z,4448
2018-04-18T16:47:47.152Z,4380
2018-04-18T16:48:56.896Z,4268
2018-04-18T16:50:06.371Z,4264
2018-04-18T16:51:15.593Z,4220
2018-04-18T16:52:25.076Z,4144
2018-04-18T16:53:35.101Z,4104
2018-04-18T16:54:45.119Z,4084
2018-04-18T16:55:54.319Z,3956
2018-04-18T16:57:04.604Z,3984
2018-04-18T16:58:14.808Z,3972
2018-04-18T16:59:24.293Z,3928
2018-04-18T17:00:34.054Z,3864
2018-04-18T17:01:44.057Z,3696
2018-04-18T17:02:53.792Z,3780
2018-04-18T17:04:03.280Z,3812
2018-04-18T17:05:12.766Z,3768
2018-04-18T17:06:22.277Z,3744
2018-04-18T17:07:32.044Z,3684
2018-04-18T17:08:42.062Z,3612
2018-04-18T17:09:51.817Z,3560
2018-04-18T17:11:01.579Z,3492
2018-04-18T17:12:11.376Z,3468
2018-04-18T17:13:21.404Z,3400
2018-04-18T17:14:30.876Z,3348
2018-04-18T17:15:40.358Z,3312
2018-04-18T17:16:50.359Z,3232
2018-04-18T17:18:00.398Z,3160
2018-04-18T17:19:10.208Z,3080
2018-04-18T17:20:20.262Z,2948
2018-04-18T17:21:30.113Z,2772
2018-04-18T17:22:40.178Z,2640
2018-04-18T17:23:50.192Z,2520
2018-04-18T17:24:59.929Z,2400
2018-04-18T17:26:09.683Z,2312
2018-04-18T17:27:19.433Z,2256
2018-04-18T17:28:29.443Z,2216
2018-04-18T17:29:38.926Z,2176
2018-04-18T17:30:48.681Z,2140
2018-04-18T17:31:58.428Z,2112
2018-04-18T17:33:08.181Z,2096
2018-04-18T17:34:17.947Z,2072
2018-04-18T17:35:27.683Z,2040
2018-04-18T17:36:37.423Z,2028
2018-04-18T17:37:46.651Z,2048
2018-04-18T17:38:56.405Z,2056
2018-04-18T17:40:06.175Z,2044
2018-04-18T17:41:15.927Z,2016
2018-04-18T17:42:25.675Z,2008
2018-04-18T17:43:34.895Z,1992
2018-04-18T17:44:44.396Z,1936
2018-04-18T17:45:54.404Z,1872
2018-04-18T17:47:04.160Z,1816
2018-04-18T17:48:14.175Z,1764
2018-04-18T17:49:24.190Z,1720
2018-04-18T17:50:33.670Z,1660
2018-04-18T17:51:43.677Z,1584
2018-04-18T17:52:53.707Z,1504
2018-04-18T17:54:03.457Z,1416
2018-04-18T17:55:13.488Z,1328
2018-04-18T17:56:23.247Z,1240
2018-04-18T17:57:32.800Z,1152
2018-04-18T17:58:42.404Z,1048
2018-04-18T17:59:52.465Z,960
2018-04-18T18:01:02.314Z,908
2018-04-18T18:02:12.337Z,884
2018-04-18T18:03:21.825Z,848
2018-04-18T18:04:31.888Z,816
2018-04-18T18:05:41.959Z,784
2018-04-18T18:06:51.977Z,748
2018-04-18T18:08:01.446Z,704
2018-04-18T18:09:10.399Z,664
2018-04-18T18:10:20.455Z,624
2018-04-18T18:11:30.197Z,588
2018-04-18T18:12:39.941Z,556
2018-04-18T18:13:49.684Z,528
2018-04-18T18:14:59.702Z,504
2018-04-18T18:16:09.226Z,480
2018-04-18T18:17:19.244Z,452
2018-04-18T18:18:29.027Z,424
2018-04-18T18:19:38.509Z,396
2018-04-18T18:20:48.524Z,372
2018-04-18T18:21:58.533Z,352
2018-04-18T18:23:08.014Z,324
2018-04-18T18:24:18.040Z,300
2018-04-18T18:25:27.580Z,276
2018-04-18T18:26:37.319Z,260
2018-04-18T18:27:47.072Z,236
2018-04-18T18:28:56.878Z,216
2018-04-18T18:30:06.120Z,196
2018-04-18T18:31:15.873Z,180
2018-04-18T18:32:25.892Z,160
2018-04-18T18:33:35.631Z,144
2018-04-18T18:34:45.658Z,132
2018-04-18T18:35:55.405Z,116
2018-04-18T18:37:05.156Z,104
2018-04-18T18:38:14.667Z,92
2018-04-18T18:39:24.674Z,80
2018-04-18T18:40:33.887Z,72
2018-04-18T18:41:43.628Z,64
2018-04-18T18:42:53.090Z,56
2018-04-18T18:44:03.105Z,52
2018-04-18T18:45:12.613Z,48
2018-04-18T18:46:22.370Z,36
2018-04-18T18:47:32.120Z,32
2018-04-18T18:48:41.864Z,32
2018-04-18T18:49:51.216Z,24
2018-04-18T18:51:01.286Z,24
2018-04-18T18:52:10.756Z,20
2018-04-18T18:53:20.497Z,16
2018-04-18T18:54:30.239Z,12
2018-04-18T18:55:39.973Z,12
2018-04-18T18:56:49.451Z,8
2018-04-18T18:57:59.206Z,12
2018-04-18T18:59:08.669Z,4
2018-04-18T19:00:18.785Z,4
2018-04-18T19:01:28.793Z,4
2018-04-18T19:02:38.018Z,8
2018-04-18T19:03:47.755Z,4
2018-04-18T19:04:57.493Z,8
2018-04-18T19:06:06.710Z,4
2018-04-18T19:07:16.190Z,4
2018-04-18T19:08:25.651Z,4
2018-04-18T19:09:34.869Z,4
2018-04-18T19:10:43.816Z,0
2018-04-18T19:11:53.560Z,0
2018-04-18T19:13:03.297Z,4
2018-04-18T19:14:13.036Z,4
2018-04-18T19:15:22.771Z,4
2018-04-18T19:16:32.242Z,4
2018-04-18T19:17:41.452Z,4
2018-04-18T19:18:50.659Z,4
2018-04-18T19:20:00.149Z,4
2018-04-18T19:21:09.899Z,4
2018-04-18T19:22:19.717Z,4
2018-04-18T19:23:28.901Z,4
2018-04-18T19:24:38.385Z,4
2018-04-18T19:25:47.649Z,4
2018-04-18T19:26:57.661Z,4
2018-04-18T19:28:07.131Z,4
2018-04-18T19:29:16.877Z,4
2018-04-18T19:30:26.889Z,4
2018-04-18T19:31:36.927Z,4
2018-04-18T19:32:46.399Z,4
2018-04-18T19:33:56.134Z,4
2018-04-18T19:35:05.869Z,4
2018-04-18T19:36:15.666Z,4
2018-04-18T19:37:25.664Z,4
2018-04-18T19:38:35.151Z,4
2018-04-18T19:39:45.271Z,4
2018-04-18T19:40:55.343Z,4
2018-04-18T19:42:04.820Z,4
2018-04-18T19:43:14.577Z,4
2018-04-18T19:44:24.571Z,4
2018-04-18T19:45:34.059Z,4
2018-04-18T19:46:43.821Z,4
2018-04-18T19:47:53.046Z,4
2018-04-18T19:49:02.576Z,4
2018-04-18T19:50:12.322Z,4
2018-04-18T19:51:22.103Z,4
2018-04-18T19:52:31.882Z,4
2018-04-18T19:53:41.950Z,4
2018-04-18T19:54:51.155Z,4
2018-04-18T19:56:01.316Z,4
2018-04-18T19:57:10.859Z,4
2018-04-18T19:58:20.708Z,4
2018-04-18T19:59:29.645Z,4
2018-04-18T20:00:39.190Z,4
2018-04-18T20:01:48.938Z,4
2018-04-18T20:02:57.877Z,4
2018-04-18T20:04:07.348Z,4
2018-04-18T20:05:17.579Z,4
2018-04-18T20:06:27.130Z,4
2018-04-18T20:07:37.152Z,4
2018-04-18T20:08:46.618Z,4
2018-04-18T20:09:56.386Z,4
2018-04-18T20:11:06.046Z,4
2018-04-18T20:12:16.175Z,4
2018-04-18T20:13:26.198Z,4
2018-04-18T20:14:35.977Z,4
2018-04-18T20:15:45.536Z,4
2018-04-18T20:16:55.679Z,4
2018-04-18T20:18:05.423Z,4
2018-04-18T20:19:15.164Z,4
2018-04-18T20:20:25.177Z,4
2018-04-18T20:21:34.125Z,4
2018-04-18T20:22:44.194Z,4
2018-04-18T20:23:53.979Z,4
2018-04-18T20:25:03.741Z,4
2018-04-18T20:26:13.475Z,4
2018-04-18T20:27:23.474Z,4
2018-04-18T20:28:33.403Z,4
2018-04-18T20:29:43.420Z,4
2018-04-18T20:30:53.181Z,4
2018-04-18T20:32:02.949Z,4
2018-04-18T20:33:13.013Z,4
2018-04-18T20:34:22.770Z,4
2018-04-18T20:35:32.581Z,4
2018-04-18T20:36:42.336Z,4
2018-04-18T20:37:51.916Z,4
2018-04-18T20:39:00.855Z,4
2018-04-18T20:40:10.612Z,4
2018-04-18T20:41:20.420Z,4
2018-04-18T20:42:30.237Z,4
2018-04-18T20:43:40.248Z,4
2018-04-18T20:44:50.329Z,4
2018-04-18T20:46:00.159Z,4
2018-04-18T20:47:09.397Z,4
2018-04-18T20:48:18.888Z,4
2018-04-18T20:49:28.500Z,4
2018-04-18T20:50:37.984Z,4
2018-04-18T20:51:48.141Z,4
2018-04-18T20:52:57.996Z,4
2018-04-18T20:54:07.483Z,4
2018-04-18T20:55:17.023Z,4
2018-04-18T20:56:26.775Z,4
2018-04-18T20:57:36.249Z,4
2018-04-18T20:58:45.716Z,4
2018-04-18T20:59:55.749Z,4
2018-04-18T21:01:04.971Z,4
2018-04-18T21:02:14.977Z,4
2018-04-18T21:03:24.734Z,4
2018-04-18T21:04:34.489Z,4
2018-04-18T21:05:43.733Z,4
2018-04-18T21:06:53.211Z,4
2018-04-18T21:08:02.987Z,4
2018-04-18T21:09:12.489Z,4
2018-04-18T21:10:22.231Z,4
2018-04-18T21:11:31.432Z,4
2018-04-18T21:12:41.173Z,4
2018-04-18T21:13:53.152Z,4
2018-04-18T21:15:02.947Z,4
2018-04-18T21:16:12.457Z,4
2018-04-18T21:17:22.215Z,4
2018-04-18T21:18:31.453Z,4
2018-04-18T21:19:41.189Z,4
2018-04-18T21:20:50.974Z,4
2018-04-18T21:22:01.087Z,4
2018-04-18T21:23:11.256Z,4
2018-04-18T21:24:20.548Z,4
2018-04-18T21:25:30.133Z,4
2018-04-18T21:26:40.276Z,4
2018-04-18T21:27:50.676Z,4
2018-04-18T21:29:00.795Z,4
2018-04-18T21:30:10.433Z,4
2018-04-18T21:31:20.661Z,4
2018-04-18T21:32:30.579Z,4
2018-04-18T21:33:40.351Z,4
2018-04-18T21:34:49.895Z,4
2018-04-18T21:35:59.368Z,4
2018-04-18T21:37:08.847Z,4
2018-04-18T21:38:18.723Z,4
2018-04-18T21:39:28.476Z,4
2018-04-18T21:40:38.248Z,4
2018-04-18T21:41:48.002Z,4
2018-04-18T21:42:57.738Z,4
2018-04-18T21:44:06.937Z,4
2018-04-18T21:45:16.712Z,4
2018-04-18T21:46:26.249Z,4
2018-04-18T21:47:35.997Z,4
2018-04-18T21:48:46.020Z,4
2018-04-18T21:49:56.019Z,4
2018-04-18T21:51:05.833Z,4
2018-04-18T21:52:16.055Z,4
2018-04-18T21:53:26.351Z,4
2018-04-18T21:54:35.929Z,4
2018-04-18T21:55:45.743Z,4
2018-04-18T21:56:55.230Z,4
2018-04-18T21:58:04.731Z,4
2018-04-18T21:59:14.067Z,4
2018-04-18T22:00:24.207Z,4
2018-04-18T22:01:33.767Z,4
2018-04-18T22:02:43.272Z,4
2018-04-18T22:03:53.033Z,4
2018-04-18T22:05:02.805Z,4
2018-04-18T22:06:12.561Z,4
2018-04-18T22:07:22.594Z,4
2018-04-18T22:08:32.104Z,4
2018-04-18T22:09:42.126Z,4
2018-04-18T22:10:52.129Z,4
2018-04-18T22:12:01.619Z,4
2018-04-18T22:13:11.406Z,4
2018-04-18T22:14:21.422Z,4
2018-04-18T22:15:30.649Z,4
2018-04-18T22:16:40.427Z,4
2018-04-18T22:17:49.901Z,4
2018-04-18T22:18:59.946Z,4
2018-04-18T22:20:09.421Z,4
2018-04-18T22:21:18.893Z,4
2018-04-18T22:22:28.636Z,4
2018-04-18T22:23:38.121Z,4
2018-04-18T22:24:47.663Z,4
2018-04-18T22:25:57.394Z,4
2018-04-18T22:27:06.874Z,4
2018-04-18T22:28:16.652Z,4
2018-04-18T22:29:26.117Z,4
2018-04-18T22:30:36.143Z,4
2018-04-18T22:31:45.906Z,4
2018-04-18T22:32:55.409Z,4
2018-04-18T22:34:05.225Z,4
2018-04-18T22:35:15.012Z,4
2018-04-18T22:36:24.748Z,4
2018-04-18T22:37:34.493Z,4
2018-04-18T22:38:44.025Z,4
2018-04-18T22:39:54.042Z,4
2018-04-18T22:41:03.787Z,4
2018-04-18T22:42:13.254Z,4
2018-04-18T22:43:22.999Z,4
2018-04-18T22:44:32.753Z,4
2018-04-18T22:45:41.953Z,4
2018-04-18T22:46:51.753Z,4
2018-04-18T22:48:01.528Z,4
2018-04-18T22:49:11.271Z,4
2018-04-18T22:50:21.318Z,4
2018-04-18T22:51:31.384Z,4
2018-04-18T22:52:41.405Z,4
2018-04-18T22:53:50.892Z,4
2018-04-18T22:55:00.657Z,4
2018-04-18T22:56:10.400Z,4
2018-04-18T22:57:20.415Z,4
2018-04-18T22:58:30.455Z,4
2018-04-18T22:59:40.110Z,4
2018-04-18T23:00:49.914Z,4
2018-04-18T23:01:59.700Z,4
2018-04-18T23:03:09.238Z,4
2018-04-18T23:04:19.029Z,4
2018-04-18T23:05:28.778Z,4
2018-04-18T23:06:38.517Z,4
2018-04-18T23:07:48.531Z,4
2018-04-18T23:08:58.074Z,4
2018-04-18T23:10:07.607Z,4
2018-04-18T23:11:17.348Z,4
2018-04-18T23:12:27.376Z,4
2018-04-18T23:13:37.391Z,4
2018-04-18T23:14:47.164Z,4
2018-04-18T23:15:56.648Z,4
2018-04-18T23:17:06.113Z,4
2018-04-18T23:18:16.182Z,4
2018-04-18T23:19:26.200Z,4
2018-04-18T23:20:35.672Z,4
2018-04-18T23:21:45.429Z,4
2018-04-18T23:22:54.914Z,4
2018-04-18T23:24:04.407Z,4
2018-04-18T23:25:14.152Z,4
2018-04-18T23:26:24.152Z,4
2018-04-18T23:27:34.164Z,4
2018-04-18T23:28:44.299Z,4
2018-04-18T23:29:53.880Z,4
2018-04-18T23:31:03.664Z,4
2018-04-18T23:32:13.421Z,4
2018-04-18T23:33:23.196Z,4
2018-04-18T23:34:32.948Z,4
2018-04-18T23:35:42.427Z,4
2018-04-18T23:36:52.167Z,4
2018-04-18T23:38:01.377Z,4
2018-04-18T23:39:11.113Z,4
2018-04-18T23:40:21.123Z,4
2018-04-18T23:41:31.176Z,4
2018-04-18T23:42:41.415Z,4
2018-04-18T23:43:51.526Z,4
2018-04-18T23:45:01.281Z,4
2018-04-18T23:46:10.775Z,4
2018-04-18T23:47:20.775Z,4
2018-04-18T23:48:30.531Z,4
2018-04-18T23:49:40.538Z,4
2018-04-18T23:50:50.539Z,4
2018-04-18T23:52:00.286Z,4
2018-04-18T23:53:09.266Z,4
2018-04-18T23:54:19.304Z,4
2018-04-18T23:55:29.331Z,4
2018-04-18T23:56:39.349Z,4
2018-04-18T23:57:49.100Z,4
2018-04-18T23:58:58.851Z,4
